Weather at Highland View Regional Hospital Heliport [CLOSED]

Public forecast

Using degrees Celsius for public forecast. Weather courtesy of forecast.io.

Closest aviation weather report (METAR) to Highland View Regional Hospital Heliport

Report is more than 6 hours old.

Closest report is Greater Moncton Roméo LeBlanc International Airport, 26.4 nm (49.0 km) NW.

2024/06/24 21:00 (retrieved 6 hours ago)

CYQM 242100Z 04008KT 12SM OVC011 16/15 A2959 RMK SC8 SLP021 DENSITY ALT 900FT

Closest aviation forecast (TAF) to Highland View Regional Hospital Heliport

Forecast is more than 6 hours old.

Closest forecast is Greater Moncton Roméo LeBlanc International Airport, 26.4 nm (49.0 km) NW.

2024/06/24 18:42 (retrieved 8 hours ago)

TAF TAF CYQM 241740Z 2418/2518 02013KT P6SM BKN015 OVC025 TEMPO 2418/2423 5SM -SHRA BR OVC008 FM242300 04008KT P6SM OVC006 TEMPO 2423/2503 1SM -RA -DZ BR OVC002 FM250300 04008KT 1SM -RA -DZ BR OVC002 TEMPO 2503/2509 P6SM NSW OVC004 FM251100 03012KT 2SM -SHRA BR OVC004 FM251300 02015KT P6SM -SHRA BKN008 BKN080 RMK NXT FCST BY 250000Z